Latest Weather Observations for Brisbane Airport

IDQ60801

Issued at 10:12 pm EST Friday 15 November 2019 (issued every 10 minutes, with the page automatically refreshed every 10 minutes)

About weather observations | Map of weather stations | Latest weather observations for QLD | Other Formats
Station Details ID: 040842 Name: BRISBANE AERO Lat: -27.39 Lon: 153.13 Height: 4.51 m
Data from the previous 72 hours. | See also: Recent months at Brisbane Airport
Date/Time
EST
Temp
°C
App
Temp
°C
Dew
Point
°C
Rel
Hum
%
Delta-T
°C
Wind Press
QNH
hPa
Press
MSL
hPa
Rain since
9am
mm
Dir  Spd
km/h
Gust
km/h
Spd
kts
Gust
kts
15/10:00pm 24.1 22.7 19.6 76 2.9 N 26 35 14 19 1012.5 1012.5 0.0
15/09:30pm 24.1 22.8 20.7 81 2.2 N 28 33 15 18 1012.3 1012.3 0.0
15/09:07pm 24.2 21.9 20.5 80 2.4 N 33 54 18 29 1012.1 1012.1 0.0
15/09:00pm 24.3 21.5 20.3 78 2.6 NNE 35 44 19 24 1011.9 1011.9 0.0
15/08:30pm 24.2 22.0 20.8 81 2.2 NNE 33 41 18 22 1011.6 1011.6 0.0
15/08:00pm 24.3 21.4 20.9 81 2.2 NNE 37 48 20 26 1011.2 1011.2 0.0
15/07:30pm 24.3 21.7 21.4 84 1.9 NNE 37 50 20 27 1011.0 1011.0 0.0
15/07:00pm 24.2 21.1 21.2 83 2.0 NNE 39 54 21 29 1010.8 1010.8 0.0
15/06:30pm 24.2 21.4 21.0 82 2.1 NNE 37 52 20 28 1010.5 1010.5 0.0
15/06:00pm 24.4 22.0 21.1 82 2.2 NNE 35 50 19 27 1010.3 1010.3 0.0
15/05:30pm 24.7 21.9 21.1 80 2.4 NNE 37 52 20 28 1010.0 1010.0 0.0
15/05:00pm 25.0 22.6 21.1 79 2.6 NNE 35 46 19 25 1009.6 1009.6 0.0
15/04:30pm 25.4 22.6 21.0 76 2.9 NNE 37 46 20 25 1009.6 1009.6 0.0
15/04:00pm 25.7 23.4 21.3 76 2.9 NNE 35 48 19 26 1009.4 1009.4 0.0
15/03:30pm 26.6 24.8 21.5 73 3.4 NNE 33 46 18 25 1009.5 1009.5 0.0
15/03:00pm 26.8 24.5 21.2 71 3.7 NNE 35 48 19 26 1009.6 1009.6 0.0
15/02:30pm 26.2 24.0 21.4 75 3.2 NNE 35 44 19 24 1010.0 1010.0 0.0
15/02:00pm 27.0 25.1 21.4 71 3.7 NNE 33 39 18 21 1010.4 1010.4 0.0
15/01:30pm 28.0 26.5 20.9 65 4.7 NNE 30 37 16 20 1010.8 1010.8 0.0
15/01:00pm 28.0 26.1 20.9 65 4.7 NNE 32 35 17 19 1011.3 1011.3 0.0
15/12:30pm 27.5 25.9 20.7 66 4.5 NE 30 35 16 19 1011.6 1011.6 0.0
15/12:00pm 28.1 26.4 19.8 60 5.4 NE 28 35 15 19 1012.0 1012.0 0.0
15/11:30am 27.7 26.2 20.2 63 4.9 NE 28 33 15 18 1012.6 1012.6 0.0
15/11:00am 26.7 26.0 20.3 68 4.2 NE 24 32 13 17 1013.3 1013.3 0.0
15/10:30am 27.2 26.5 20.3 66 4.5 NE 24 30 13 16 1013.9 1013.9 0.0
15/10:00am 26.5 26.7 20.2 68 4.1 NE 19 26 10 14 1014.3 1014.3 0.0
15/09:30am 26.2 26.8 19.4 66 4.4 NNE 15 20 8 11 1014.5 1014.5 0.0
15/09:00am 26.1 26.8 18.9 64 4.6 NNE 13 19 7 10 1014.6 1014.6 0.0
15/08:30am 25.8 26.4 19.4 67 4.1 N 15 22 8 12 1014.7 1014.7 0.0
15/08:00am 24.6 25.8 19.1 71 3.5 N 11 15 6 8 1014.9 1014.9 0.0
15/07:30am 23.9 25.8 18.9 73 3.2 WNW 7 11 4 6 1015.0 1015.0 0.0
15/07:00am 23.7 25.2 18.8 74 3.1 SW 9 15 5 8 1014.8 1014.8 0.0
15/06:30am 22.6 23.7 18.8 79 2.4 SSW 11 13 6 7 1014.5 1014.5 0.0
15/06:00am 21.9 22.3 18.9 83 1.9 SW 15 17 8 9 1014.3 1014.3 0.0
15/05:30am 21.1 23.9 19.7 92 0.9 SSW 4 9 2 5 1014.1 1014.1 0.0
15/05:00am 21.2 24.8 19.8 92 0.9 CALM 0 0 0 0 1013.7 1013.7 0.0
15/04:30am 21.4 24.0 20.0 92 0.9 NE 6 7 3 4 1013.3 1013.3 0.0
15/04:00am 21.1 24.7 19.8 92 0.8 CALM 0 0 0 0 1013.2 1013.2 0.0
15/03:30am 20.1 22.3 19.6 97 0.3 NE 7 7 4 4 1013.2 1013.2 0.0
15/03:00am 21.2 23.5 19.8 92 0.9 NE 7 9 4 5 1013.2 1013.2 0.0
15/02:30am 21.5 23.5 19.9 91 1.0 NE 9 11 5 6 1013.4 1013.4 0.0
15/02:00am 22.2 24.5 19.9 87 1.5 ENE 7 9 4 5 1013.4 1013.4 0.0
15/01:30am 21.9 23.8 19.7 87 1.4 NE 9 11 5 6 1013.5 1013.5 0.0
15/01:00am 21.8 23.1 19.4 86 1.5 NE 11 13 6 7 1013.8 1013.8 0.0
15/12:30am 22.4 23.8 19.6 84 1.8 NE 11 15 6 8 1014.1 1014.1 0.0
15/12:00am 22.6 23.5 19.3 81 2.1 ENE 13 17 7 9 1014.4 1014.4 0.0
 
Date/Time
EST
Temp
°C
App
Temp
°C
Dew
Point
°C
Rel
Hum
%
Delta-T
°C
Wind Press
QNH
hPa
Press
MSL
hPa
Rain since
9am
mm
Dir  Spd
km/h
Gust
km/h
Spd
kts
Gust
kts
14/11:30pm 22.6 24.3 19.3 81 2.1 NE 9 15 5 8 1014.6 1014.6 0.0
14/11:00pm 22.7 24.0 19.2 80 2.2 ENE 11 15 6 8 1014.7 1014.7 0.0
14/10:30pm 22.7 23.8 18.9 79 2.4 ENE 11 13 6 7 1014.8 1014.8 0.0
14/10:00pm 22.6 23.8 19.0 80 2.3 ENE 11 13 6 7 1014.9 1014.9 0.0
14/09:30pm 22.4 24.0 19.1 81 2.1 ENE 9 9 5 5 1014.9 1014.9 0.0
14/09:00pm 21.6 23.2 19.1 86 1.6 NE 9 11 5 6 1014.7 1014.7 0.0
14/08:30pm 21.9 22.7 19.1 84 1.8 ENE 13 17 7 9 1014.2 1014.2 0.0
14/08:00pm 22.0 23.0 18.7 81 2.1 ENE 11 15 6 8 1014.1 1014.1 0.0
14/07:30pm 22.4 23.0 18.6 79 2.4 ENE 13 17 7 9 1013.7 1013.7 0.0
14/07:00pm 22.5 22.3 18.4 77 2.6 ENE 17 22 9 12 1013.5 1013.5 0.0
14/06:30pm 22.5 22.5 18.2 76 2.7 ENE 15 24 8 13 1013.2 1013.2 0.0
14/06:00pm 23.0 22.8 17.7 72 3.3 ENE 15 20 8 11 1012.7 1012.7 0.0
14/05:30pm 23.5 22.4 17.2 67 3.9 ENE 19 26 10 14 1012.3 1012.3 0.0
14/05:00pm 24.1 22.8 17.3 65 4.2 ENE 20 28 11 15 1011.9 1011.9 0.0
14/04:30pm 24.5 22.5 15.4 57 5.5 ENE 20 30 11 16 1011.7 1011.7 0.0
14/04:00pm 25.0 22.1 15.0 53 6.0 ENE 24 32 13 17 1011.6 1011.6 0.0
14/03:30pm 25.5 21.7 13.6 47 7.0 ENE 26 33 14 18 1011.7 1011.7 0.0
14/03:00pm 26.0 21.8 13.6 46 7.3 NE 28 35 15 19 1011.8 1011.8 0.0
14/02:30pm 26.0 21.5 10.2 37 8.8 ENE 24 33 13 18 1011.8 1011.8 0.0
14/02:00pm 26.5 22.8 11.6 39 8.5 ENE 22 32 12 17 1012.2 1012.2 0.0
14/01:30pm 27.4 23.2 9.8 33 9.8 ENE 22 28 12 15 1012.7 1012.7 0.0
14/01:00pm 27.1 22.9 9.6 33 9.7 NE 22 28 12 15 1013.2 1013.2 0.0
14/12:30pm 27.2 23.8 10.5 35 9.4 NE 19 26 10 14 1013.6 1013.6 0.0
14/12:00pm 25.9 22.5 10.7 38 8.5 NNE 19 26 10 14 1014.0 1014.0 0.0
14/11:30am 26.6 23.3 11.7 39 8.5 NE 20 28 11 15 1014.5 1014.5 0.0
14/11:00am 25.7 22.9 11.4 40 8.1 NE 17 24 9 13 1015.1 1015.1 0.0
14/10:30am 25.5 22.6 12.9 45 7.3 NNE 20 26 11 14 1015.5 1015.5 0.0
14/10:00am 25.0 22.7 13.1 47 6.9 ENE 17 22 9 12 1016.0 1016.0 0.0
14/09:30am 24.8 22.4 13.9 50 6.4 ENE 19 26 10 14 1016.2 1016.2 0.0
14/09:00am 24.2 22.2 10.2 41 7.7 SE 11 17 6 9 1016.6 1016.6 0.0
14/08:30am 23.5 22.0 12.0 48 6.5 E 11 22 6 12 1016.5 1016.5 0.0
14/08:00am 23.3 22.3 13.3 53 5.8 SE 11 17 6 9 1016.4 1016.4 0.0
14/07:30am 22.9 22.4 15.0 61 4.7 SE 11 17 6 9 1016.3 1016.3 0.0
14/07:00am 22.2 21.8 15.3 65 4.1 E 11 15 6 8 1016.1 1016.1 0.0
14/06:30am 21.3 21.2 16.0 72 3.2 SE 11 15 6 8 1015.9 1015.9 0.0
14/06:00am 20.9 21.2 15.9 73 3.0 SE 9 13 5 7 1015.6 1015.6 0.0
14/05:30am 20.7 20.9 15.7 73 3.0 ESE 9 13 5 7 1015.2 1015.2 0.0
14/05:00am 20.2 20.6 15.3 73 2.9 ESE 7 11 4 6 1014.9 1014.9 0.0
14/04:30am 20.3 20.4 15.6 74 2.8 ESE 9 13 5 7 1014.6 1014.6 0.0
14/04:00am 20.4 20.5 15.5 73 2.9 ESE 9 13 5 7 1014.4 1014.4 0.0
14/03:30am 20.6 20.4 15.7 73 2.9 SE 11 15 6 8 1014.3 1014.3 0.0
14/03:00am 21.0 21.0 16.2 74 2.9 ESE 11 17 6 9 1014.2 1014.2 0.0
14/02:30am 21.1 21.5 16.3 74 2.9 ESE 9 13 5 7 1014.2 1014.2 0.0
14/02:00am 21.3 21.1 15.8 71 3.3 SE 11 15 6 8 1014.2 1014.2 0.0
14/01:30am 21.3 20.9 15.2 68 3.6 SE 11 19 6 10 1014.0 1014.0 0.0
14/01:00am 21.2 20.3 14.9 67 3.7 ESE 13 17 7 9 1014.0 1014.0 0.0
14/12:30am 21.5 20.8 15.5 68 3.6 ESE 13 19 7 10 1014.1 1014.1 0.0
14/12:00am 21.7 21.1 15.7 68 3.6 SE 13 20 7 11 1014.4 1014.4 0.0
 
Date/Time
EST
Temp
°C
App
Temp
°C
Dew
Point
°C
Rel
Hum
%
Delta-T
°C
Wind Press
QNH
hPa
Press
MSL
hPa
Rain since
9am
mm
Dir  Spd
km/h
Gust
km/h
Spd
kts
Gust
kts
13/11:30pm 21.7 21.1 15.7 68 3.6 ESE 13 24 7 13 1014.5 1014.5 0.0
13/11:00pm 21.6 21.0 15.6 68 3.6 SE 13 19 7 10 1014.6 1014.6 0.0
13/10:30pm 21.6 21.1 15.9 70 3.4 SE 13 24 7 13 1014.8 1014.8 0.0
13/10:00pm 21.5 20.1 15.6 69 3.5 SE 17 30 9 16 1014.7 1014.7 0.0
13/09:30pm 21.7 20.3 15.5 68 3.7 SE 17 28 9 15 1014.7 1014.7 0.0
13/09:00pm 22.0 20.3 15.7 67 3.8 SE 19 30 10 16 1014.6 1014.6 0.0
13/08:30pm 22.1 21.1 16.5 70 3.4 ESE 17 26 9 14 1014.2 1014.2 0.0
13/08:00pm 22.1 20.5 16.0 68 3.7 SE 19 28 10 15 1013.9 1013.9 0.0
13/07:30pm 22.1 20.3 15.4 65 4.0 ESE 19 30 10 16 1013.6 1013.6 0.0
13/07:00pm 22.1 20.6 15.4 65 4.0 ESE 17 30 9 16 1013.0 1013.0 0.0
13/06:30pm 22.0 20.0 15.5 66 3.9 ESE 20 32 11 17 1012.7 1012.7 0.0
13/06:00pm 22.1 20.1 15.4 65 4.0 ESE 20 33 11 18 1012.1 1012.1 0.0
13/05:30pm 22.6 20.6 15.4 64 4.3 SE 20 32 11 17 1011.7 1011.7 0.0
13/05:00pm 23.0 20.4 15.9 64 4.3 ESE 24 35 13 19 1011.4 1011.4 0.0
13/04:30pm 23.4 20.8 16.0 63 4.5 ESE 24 39 13 21 1010.9 1010.9 0.0
13/04:00pm 23.9 20.8 16.6 63 4.5 ESE 28 41 15 22 1010.5 1010.5 0.0
13/03:40pm 24.2 21.2 16.7 63 4.6 SE 28 46 15 25 1010.3 1010.3 0.0
13/03:30pm 24.5 22.3 16.9 62 4.7 SE 24 43 13 23 1010.3 1010.3 0.0
13/03:00pm 24.4 21.3 16.6 61 4.8 SE 28 44 15 24 1010.0 1010.0 0.0
13/02:30pm 25.2 22.4 17.3 61 4.9 SE 28 48 15 26 1009.9 1009.9 0.0
13/02:27pm 24.7 21.8 17.1 62 4.7 SE 28 48 15 26 1009.8 1009.8 0.0
13/02:00pm 25.3 22.7 17.8 63 4.7 SE 28 44 15 24 1009.8 1009.8 0.0
13/01:30pm 25.9 23.5 18.2 62 4.9 SE 28 44 15 24 1009.8 1009.8 0.0
13/01:00pm 25.8 23.2 18.6 64 4.6 SE 30 48 16 26 1010.0 1010.0 0.0
13/12:30pm 26.2 23.7 18.9 64 4.7 SE 30 48 16 26 1010.5 1010.5 0.0
13/12:11pm 26.0 23.4 18.6 63 4.7 SE 30 50 16 27 1010.6 1010.6 0.0
13/12:00pm 25.6 22.5 18.3 64 4.6 SE 32 44 17 24 1010.7 1010.7 0.0
13/11:30am 25.8 22.7 18.4 63 4.7 SE 32 50 17 27 1010.8 1010.8 0.0
13/11:21am 26.2 24.0 18.7 63 4.8 ESE 28 50 15 27 1010.9 1010.9 0.0
13/11:00am 29.4 27.0 17.4 48 7.6 NE 26 33 14 18 1010.3 1010.3 0.0
13/10:30am 30.9 28.4 9.7 27 12.0 WNW 13 19 7 10 1010.4 1010.4 0.0
13/10:00am 31.7 29.0 8.8 24 12.8 W 13 22 7 12 1010.6 1010.6 0.0
13/09:30am 31.2 27.3 9.4 26 12.3 WSW 20 33 11 18 1010.7 1010.7 0.0
13/09:00am 31.0 26.8 7.3 22 12.9 NW 19 30 10 16 1010.8 1010.8 0.0
13/08:30am 29.7 25.5 11.1 31 10.7 NW 24 33 13 18 1010.6 1010.6 0.0
13/08:00am 28.6 24.4 11.1 33 10.0 NW 24 32 13 17 1010.3 1010.3 0.0
13/07:30am 27.6 22.6 10.9 35 9.5 NNW 28 39 15 21 1010.2 1010.2 0.0
13/07:00am 26.6 22.9 11.5 39 8.6 N 22 32 12 17 1010.2 1010.2 0.0
13/06:30am 24.9 23.2 14.7 53 6.1 N 17 24 9 13 1010.3 1010.3 0.0
13/06:00am 23.1 21.6 14.1 57 5.3 NNW 15 20 8 11 1010.1 1010.1 0.0
13/05:30am 22.3 21.0 15.8 66 3.9 N 17 26 9 14 1010.1 1010.1 0.0
13/05:00am 21.1 19.6 16.3 74 2.9 N 19 24 10 13 1009.1 1009.1 0.0
13/04:30am 21.6 19.4 16.0 70 3.4 N 22 30 12 16 1008.8 1008.8 0.0
13/04:00am 21.8 19.2 16.0 69 3.5 N 24 30 13 16 1008.3 1008.3 0.0
13/03:30am 21.9 19.6 15.6 67 3.8 N 22 32 12 17 1008.4 1008.4 0.0
13/03:00am 21.9 19.4 16.1 69 3.5 NNE 24 33 13 18 1008.1 1008.1 0.0
13/02:30am 21.4 20.0 16.5 73 3.0 N 19 26 10 14 1008.3 1008.3 0.0
13/02:00am 22.4 19.7 15.6 65 4.1 N 24 33 13 18 1008.5 1008.5 0.0
13/01:30am 22.3 19.9 15.5 65 4.1 NNE 22 30 12 16 1008.6 1008.6 0.0
13/01:00am 22.9 20.0 15.0 61 4.7 N 24 32 13 17 1008.8 1008.8 0.0
13/12:30am 23.2 20.3 15.0 60 4.9 N 24 32 13 17 1008.9 1008.9 0.0
13/12:00am 23.5 20.2 15.1 59 5.0 N 26 33 14 18 1009.1 1009.1 0.0
 
Date/Time
EST
Temp
°C
App
Temp
°C
Dew
Point
°C
Rel
Hum
%
Delta-T
°C
Wind Press
QNH
hPa
Press
MSL
hPa
Rain since
9am
mm
Dir  Spd
km/h
Gust
km/h
Spd
kts
Gust
kts
12/11:30pm 23.4 19.9 15.6 61 4.7 NNE 28 35 15 19 1009.4 1009.4 0.0
12/11:00pm 23.5 19.2 15.5 60 4.8 NNE 32 37 17 20 1009.5 1009.5 0.0
12/10:30pm 23.9 20.0 15.4 59 5.1 NNE 30 39 16 21 1009.8 1009.8 0.0

Other formats

Comma delimited format used in spreadsheet applications
http://www.bom.gov.au/fwo/IDQ60801/IDQ60801.94578.axf

JavaScript Object Notation format (JSON) in row-major order
http://www.bom.gov.au/fwo/IDQ60801/IDQ60801.94578.json

Data quality

Most of these data are generated automatically and are frequently updated. Quality checks on data are not normally performed. It is possible for incorrect values to appear. Refer to information at About Latest Weather Observations and please check the disclaimer before using these data.